createdAt,value
2018-03-04T00:00:23.485Z,2.70
2018-03-04T00:02:58.205Z,2.80
2018-03-04T00:05:33.115Z,2.90
2018-03-04T00:08:07.689Z,2.90
2018-03-04T00:10:37.290Z,2.90
2018-03-04T00:13:11.563Z,2.90
2018-03-04T00:15:46.993Z,2.80
2018-03-04T00:18:16.584Z,2.80
2018-03-04T00:20:51.236Z,2.80
2018-03-04T00:23:25.900Z,2.80
2018-03-04T00:26:00.413Z,2.80
2018-03-04T00:28:34.952Z,2.80
2018-03-04T00:31:10.381Z,2.90
2018-03-04T00:33:41.782Z,2.90
2018-03-04T00:36:17.246Z,2.90
2018-03-04T00:38:51.909Z,2.90
2018-03-04T00:41:26.523Z,2.90
2018-03-04T00:44:01.052Z,2.90
2018-03-04T00:46:35.667Z,2.70
2018-03-04T00:49:10.279Z,3.00
2018-03-04T00:51:44.721Z,3.00
2018-03-04T00:54:19.324Z,3.00
2018-03-04T00:56:54.123Z,3.00
2018-03-04T00:59:24.602Z,3.00
2018-03-04T01:01:59.135Z,3.00
2018-03-04T01:04:33.832Z,3.00
2018-03-04T01:07:08.458Z,3.00
2018-03-04T01:09:44.411Z,3.10
2018-03-04T01:12:19.091Z,3.00
2018-03-04T01:14:54.492Z,3.00
2018-03-04T01:17:29.108Z,3.00
2018-03-04T01:20:03.720Z,3.00
2018-03-04T01:22:38.250Z,3.00
2018-03-04T01:25:12.791Z,3.00
2018-03-04T01:27:47.498Z,3.00
2018-03-04T01:30:22.064Z,3.10
2018-03-04T01:32:56.656Z,3.10
2018-03-04T01:35:31.375Z,3.10
2018-03-04T01:38:06.634Z,3.00
2018-03-04T01:40:41.159Z,3.00
2018-03-04T01:43:15.539Z,3.00
2018-03-04T01:45:50.156Z,2.90
2018-03-04T01:48:26.384Z,2.80
2018-03-04T01:51:01.082Z,2.80
2018-03-04T01:53:35.656Z,2.80
2018-03-04T01:56:10.370Z,2.90
2018-03-04T01:58:45.071Z,3.00
2018-03-04T02:01:19.573Z,3.00
2018-03-04T02:03:54.066Z,3.00
2018-03-04T02:06:28.628Z,3.10
2018-03-04T02:09:02.739Z,3.10
2018-03-04T02:11:41.240Z,3.20
2018-03-04T02:14:16.963Z,3.20
2018-03-04T02:16:51.526Z,3.20
2018-03-04T02:19:26.052Z,3.30
2018-03-04T02:22:00.680Z,3.30
2018-03-04T02:24:35.270Z,3.30
2018-03-04T02:27:20.686Z,3.40
2018-03-04T02:29:55.276Z,3.30
2018-03-04T02:32:29.915Z,3.30
2018-03-04T02:35:04.565Z,3.30
2018-03-04T02:37:39.098Z,3.30
2018-03-04T02:40:13.666Z,3.40
2018-03-04T02:42:48.264Z,3.40
2018-03-04T02:45:23.007Z,3.40
2018-03-04T02:47:57.552Z,3.40
2018-03-04T02:50:32.988Z,3.40
2018-03-04T02:53:08.575Z,3.50
2018-03-04T02:55:43.957Z,3.50
2018-03-04T02:58:18.644Z,3.50
2018-03-04T03:00:53.147Z,3.50
2018-03-04T03:03:27.953Z,3.50
2018-03-04T03:06:02.541Z,3.50
2018-03-04T03:08:32.518Z,3.50
2018-03-04T03:11:07.140Z,3.50
2018-03-04T03:13:41.804Z,3.50
2018-03-04T03:16:17.300Z,3.50
2018-03-04T03:18:51.979Z,3.50
2018-03-04T03:21:26.468Z,3.60
2018-03-04T03:23:56.102Z,3.50
2018-03-04T03:26:30.676Z,3.50
2018-03-04T03:29:06.129Z,3.40
2018-03-04T03:31:40.646Z,3.40
2018-03-04T03:34:15.567Z,3.50
2018-03-04T03:36:51.027Z,3.50
2018-03-04T03:39:25.755Z,3.50
2018-03-04T03:42:00.509Z,3.20
2018-03-04T03:44:35.232Z,3.60
2018-03-04T03:47:10.139Z,3.60
2018-03-04T03:49:44.649Z,3.60
2018-03-04T03:52:19.287Z,3.60
2018-03-04T03:54:54.472Z,3.60
2018-03-04T03:57:28.963Z,3.60
2018-03-04T04:00:03.537Z,3.10
2018-03-04T04:02:32.949Z,3.60
2018-03-04T04:05:07.483Z,3.60
2018-03-04T04:07:42.230Z,3.70
2018-03-04T04:10:16.905Z,3.70
2018-03-04T04:12:51.371Z,3.60
2018-03-04T04:15:25.784Z,3.60
2018-03-04T04:18:00.494Z,3.50
2018-03-04T04:20:31.031Z,3.50
2018-03-04T04:23:05.615Z,3.50
2018-03-04T04:25:40.154Z,3.50
2018-03-04T04:28:12.994Z,3.50
2018-03-04T04:30:47.474Z,3.50
2018-03-04T04:33:22.201Z,3.60
2018-03-04T04:35:56.927Z,3.60
2018-03-04T04:38:31.778Z,3.60
2018-03-04T04:41:06.403Z,3.70
2018-03-04T04:43:40.938Z,3.70
2018-03-04T04:46:15.502Z,3.70
2018-03-04T04:48:50.277Z,3.80
2018-03-04T04:51:25.205Z,3.80
2018-03-04T04:54:00.799Z,3.90
2018-03-04T04:56:36.182Z,3.90
2018-03-04T04:59:10.741Z,3.90
2018-03-04T05:01:40.256Z,3.90
2018-03-04T05:04:17.867Z,3.90
2018-03-04T05:06:52.397Z,3.90
2018-03-04T05:09:26.220Z,3.90
2018-03-04T05:12:01.257Z,3.90
2018-03-04T05:14:35.701Z,3.90
2018-03-04T05:17:10.454Z,3.90
2018-03-04T05:19:45.163Z,3.90
2018-03-04T05:22:22.344Z,4.00
2018-03-04T05:24:56.974Z,4.00
2018-03-04T05:27:31.551Z,4.00
2018-03-04T05:30:06.110Z,4.00
2018-03-04T05:32:40.795Z,4.10
2018-03-04T05:35:15.260Z,4.00
2018-03-04T05:37:50.963Z,4.00
2018-03-04T05:40:25.406Z,4.00
2018-03-04T05:43:00.027Z,4.10
2018-03-04T05:45:35.569Z,4.10
2018-03-04T05:48:11.903Z,4.10
2018-03-04T05:50:46.196Z,4.10
2018-03-04T05:53:20.747Z,4.10
2018-03-04T05:55:55.316Z,4.10
2018-03-04T05:58:30.715Z,4.10
2018-03-04T06:01:05.248Z,4.10
2018-03-04T06:03:39.927Z,4.10
2018-03-04T06:06:14.860Z,4.10
2018-03-04T06:08:50.279Z,4.10
2018-03-04T06:11:25.759Z,4.10
2018-03-04T06:13:55.373Z,4.10
2018-03-04T06:16:30.802Z,4.10
2018-03-04T06:19:06.311Z,4.10
2018-03-04T06:21:40.996Z,4.10
2018-03-04T06:24:15.594Z,4.20
2018-03-04T06:26:50.442Z,4.20
2018-03-04T06:29:19.611Z,4.20
2018-03-04T06:31:54.482Z,4.20
2018-03-04T06:34:29.187Z,4.20
2018-03-04T06:37:05.108Z,4.10
2018-03-04T06:39:34.263Z,4.10
2018-03-04T06:42:08.917Z,4.10
2018-03-04T06:44:43.672Z,4.10
2018-03-04T06:47:18.433Z,4.10
2018-03-04T06:49:53.135Z,4.10
2018-03-04T06:52:27.751Z,4.20
2018-03-04T06:55:02.281Z,4.20
2018-03-04T06:57:36.902Z,4.30
2018-03-04T07:00:11.527Z,4.30
2018-03-04T07:02:46.133Z,4.40
2018-03-04T07:05:20.733Z,4.40
2018-03-04T07:07:55.432Z,4.50
2018-03-04T07:10:31.095Z,4.60
2018-03-04T07:13:03.309Z,4.60
2018-03-04T07:15:38.060Z,4.60
2018-03-04T07:18:12.823Z,4.70
2018-03-04T07:20:47.587Z,4.70
2018-03-04T07:23:22.325Z,4.70
2018-03-04T07:25:56.915Z,4.80
2018-03-04T07:28:31.444Z,4.90
2018-03-04T07:31:05.623Z,4.90
2018-03-04T07:33:40.180Z,4.90
2018-03-04T07:36:15.861Z,5.00
2018-03-04T07:38:50.477Z,5.00
2018-03-04T07:41:25.130Z,5.00
2018-03-04T07:43:59.679Z,5.00
2018-03-04T07:46:34.243Z,5.10
2018-03-04T07:49:08.864Z,5.00
2018-03-04T07:51:43.405Z,5.00
2018-03-04T07:54:18.096Z,4.80
2018-03-04T07:56:47.488Z,4.80
2018-03-04T07:59:22.541Z,4.70
2018-03-04T08:01:57.883Z,4.70
2018-03-04T08:04:27.253Z,4.70
2018-03-04T08:07:02.621Z,4.70
2018-03-04T08:09:37.998Z,4.70
2018-03-04T08:12:12.693Z,4.70
2018-03-04T08:14:47.217Z,4.70
2018-03-04T08:17:22.545Z,4.80
2018-03-04T08:19:57.082Z,4.90
2018-03-04T08:22:31.594Z,5.00
2018-03-04T08:25:17.455Z,5.10
2018-03-04T08:28:14.120Z,5.40
2018-03-04T08:30:48.648Z,5.70
2018-03-04T08:33:23.346Z,6.00
2018-03-04T08:35:58.008Z,6.30
2018-03-04T08:38:32.445Z,6.40
2018-03-04T08:41:07.095Z,6.30
2018-03-04T08:43:42.621Z,6.50
2018-03-04T08:46:17.370Z,6.50
2018-03-04T08:48:52.764Z,6.60
2018-03-04T08:51:28.203Z,6.60
2018-03-04T08:54:02.893Z,6.60
2018-03-04T08:56:37.664Z,6.50
2018-03-04T08:59:12.273Z,6.30
2018-03-04T09:01:47.086Z,6.20
2018-03-04T09:04:21.639Z,6.10
2018-03-04T09:06:56.169Z,6.10
2018-03-04T09:09:31.504Z,6.10
2018-03-04T09:12:06.320Z,6.10
2018-03-04T09:14:40.905Z,6.10
2018-03-04T09:17:15.920Z,6.10
2018-03-04T09:19:50.674Z,6.20
2018-03-04T09:22:25.511Z,6.30
2018-03-04T09:25:00.158Z,6.40
2018-03-04T09:27:34.822Z,6.70
2018-03-04T09:30:09.506Z,7.00
2018-03-04T09:32:44.236Z,7.20
2018-03-04T09:35:19.947Z,7.70
2018-03-04T09:37:54.595Z,7.60
2018-03-04T09:40:29.222Z,7.70
2018-03-04T09:43:03.799Z,7.90
2018-03-04T09:45:39.112Z,7.90
2018-03-04T09:48:13.824Z,7.90
2018-03-04T09:50:48.462Z,8.00
2018-03-04T09:53:23.188Z,8.10
2018-03-04T09:55:58.816Z,8.20
2018-03-04T09:58:33.486Z,8.20
2018-03-04T10:01:08.083Z,8.30
2018-03-04T10:03:43.426Z,8.40
2018-03-04T10:06:18.140Z,8.40
2018-03-04T10:08:52.779Z,8.50
2018-03-04T10:11:27.401Z,8.50
2018-03-04T10:14:02.155Z,8.50
2018-03-04T10:16:36.734Z,8.50
2018-03-04T10:19:11.319Z,8.70
2018-03-04T10:21:45.952Z,8.80
2018-03-04T10:24:20.550Z,9.10
2018-03-04T10:26:49.737Z,9.30
2018-03-04T10:29:24.323Z,9.40
2018-03-04T10:31:58.999Z,9.30
2018-03-04T10:34:33.600Z,9.10
2018-03-04T10:37:08.348Z,9.00
2018-03-04T10:39:43.060Z,8.90
2018-03-04T10:42:17.851Z,8.80
2018-03-04T10:44:53.500Z,8.80
2018-03-04T10:47:28.129Z,8.80
2018-03-04T10:50:02.828Z,8.90
2018-03-04T10:52:37.501Z,8.90
2018-03-04T10:55:11.989Z,8.90
2018-03-04T10:57:46.823Z,9.00
2018-03-04T11:00:24.117Z,9.30
2018-03-04T11:03:00.003Z,9.60
2018-03-04T11:05:34.464Z,9.90
2018-03-04T11:08:08.839Z,10.30
2018-03-04T11:10:43.384Z,10.50
2018-03-04T11:13:18.104Z,10.50
2018-03-04T11:15:52.572Z,10.40
2018-03-04T11:18:28.100Z,10.20
2018-03-04T11:21:02.673Z,10.10
2018-03-04T11:23:37.225Z,10.10
2018-03-04T11:26:11.831Z,10.10
2018-03-04T11:28:46.430Z,10.20
2018-03-04T11:31:21.296Z,10.30
2018-03-04T11:33:55.877Z,10.40
2018-03-04T11:36:31.337Z,10.50
2018-03-04T11:39:05.722Z,10.50
2018-03-04T11:41:40.411Z,10.40
2018-03-04T11:44:15.735Z,10.00
2018-03-04T11:46:50.615Z,10.00
2018-03-04T11:49:25.298Z,9.80
2018-03-04T11:51:56.019Z,9.80
2018-03-04T11:54:32.152Z,9.90
2018-03-04T11:57:07.653Z,10.00
2018-03-04T11:59:42.422Z,9.90
2018-03-04T12:02:17.081Z,10.00
2018-03-04T12:04:51.714Z,10.00
2018-03-04T12:07:26.391Z,10.00
2018-03-04T12:10:01.406Z,10.00
2018-03-04T12:12:35.944Z,9.90
2018-03-04T12:15:10.531Z,9.90
2018-03-04T12:17:45.362Z,9.90
2018-03-04T12:20:20.019Z,10.10
2018-03-04T12:22:54.839Z,10.30
2018-03-04T12:25:24.220Z,10.50
2018-03-04T12:27:59.628Z,10.80
2018-03-04T12:30:34.325Z,10.80
2018-03-04T12:33:08.853Z,10.80
2018-03-04T12:35:43.538Z,10.80
2018-03-04T12:38:18.096Z,10.90
2018-03-04T12:40:48.070Z,11.00
2018-03-04T12:43:22.618Z,11.10
2018-03-04T12:45:57.223Z,11.10
2018-03-04T12:48:26.385Z,11.10
2018-03-04T12:51:00.807Z,11.20
2018-03-04T12:53:35.408Z,11.40
2018-03-04T12:56:10.214Z,11.40
2018-03-04T12:58:45.155Z,11.60
2018-03-04T13:01:20.813Z,11.80
2018-03-04T13:03:55.594Z,11.70
2018-03-04T13:06:31.234Z,11.80
2018-03-04T13:09:06.204Z,11.80
2018-03-04T13:11:41.481Z,11.90
2018-03-04T13:14:15.438Z,11.90
2018-03-04T13:16:50.779Z,12.00
2018-03-04T13:19:25.325Z,12.00
2018-03-04T13:22:00.384Z,12.10
2018-03-04T13:24:34.996Z,12.10
2018-03-04T13:27:09.704Z,12.20
2018-03-04T13:29:45.227Z,12.30
2018-03-04T13:32:19.977Z,12.40
2018-03-04T13:34:50.142Z,12.50
2018-03-04T13:37:25.617Z,12.60
2018-03-04T13:40:00.411Z,12.60
2018-03-04T13:42:35.083Z,12.60
2018-03-04T13:45:09.837Z,12.60
2018-03-04T13:47:44.546Z,12.70
2018-03-04T13:50:13.659Z,12.70
2018-03-04T13:52:48.329Z,12.70
2018-03-04T13:55:22.935Z,12.70
2018-03-04T13:57:57.711Z,12.70
2018-03-04T14:00:32.489Z,12.70
2018-03-04T14:03:07.328Z,12.80
2018-03-04T14:05:41.799Z,12.90
2018-03-04T14:08:11.118Z,13.00
2018-03-04T14:10:46.024Z,13.10
2018-03-04T14:13:21.366Z,13.20
2018-03-04T14:15:56.071Z,13.10
2018-03-04T14:18:30.762Z,13.20
2018-03-04T14:21:05.316Z,13.20
2018-03-04T14:23:39.960Z,13.30
2018-03-04T14:26:14.496Z,13.20
2018-03-04T14:28:49.329Z,13.10
2018-03-04T14:31:24.721Z,13.00
2018-03-04T14:33:59.430Z,13.00
2018-03-04T14:36:34.857Z,13.00
2018-03-04T14:39:09.639Z,13.00
2018-03-04T14:41:44.328Z,12.90
2018-03-04T14:44:18.871Z,13.00
2018-03-04T14:46:53.614Z,13.00
2018-03-04T14:49:28.122Z,13.00
2018-03-04T14:52:03.532Z,12.90
2018-03-04T14:54:38.220Z,12.90
2018-03-04T14:57:13.069Z,12.80
2018-03-04T14:59:47.726Z,12.80
2018-03-04T15:02:23.208Z,12.70
2018-03-04T15:04:58.511Z,12.60
2018-03-04T15:07:29.834Z,12.60
2018-03-04T15:10:04.323Z,12.50
2018-03-04T15:12:39.670Z,12.50
2018-03-04T15:15:09.166Z,12.50
2018-03-04T15:17:43.769Z,12.50
2018-03-04T15:20:18.304Z,12.50
2018-03-04T15:22:52.909Z,12.50
2018-03-04T15:25:27.508Z,12.50
2018-03-04T15:28:02.065Z,12.40
2018-03-04T15:30:32.388Z,12.40
2018-03-04T15:33:07.163Z,12.30
2018-03-04T15:35:42.788Z,12.20
2018-03-04T15:38:18.263Z,12.10
2018-03-04T15:40:47.391Z,12.10
2018-03-04T15:43:22.031Z,12.10
2018-03-04T15:45:56.644Z,12.10
2018-03-04T15:48:31.322Z,12.10
2018-03-04T15:51:06.807Z,12.00
2018-03-04T15:53:41.451Z,11.90
2018-03-04T15:56:15.993Z,11.90
2018-03-04T15:58:50.694Z,11.80
2018-03-04T16:01:25.396Z,11.80
2018-03-04T16:04:00.051Z,11.70
2018-03-04T16:06:34.559Z,11.60
2018-03-04T16:09:09.188Z,11.60
2018-03-04T16:11:39.718Z,11.50
2018-03-04T16:14:14.472Z,11.50
2018-03-04T16:16:49.156Z,11.40
2018-03-04T16:19:23.710Z,11.40
2018-03-04T16:21:59.956Z,11.30
2018-03-04T16:24:34.589Z,11.30
2018-03-04T16:27:09.448Z,11.30
2018-03-04T16:29:44.222Z,11.20
2018-03-04T16:32:18.922Z,11.10
2018-03-04T16:34:53.545Z,11.10
2018-03-04T16:37:28.136Z,11.00
2018-03-04T16:40:02.709Z,11.00
2018-03-04T16:42:37.313Z,11.00
2018-03-04T16:45:12.183Z,10.90
2018-03-04T16:47:47.046Z,10.80
2018-03-04T16:50:21.634Z,10.80
2018-03-04T16:52:56.461Z,10.80
2018-03-04T16:55:31.290Z,10.70
2018-03-04T16:58:05.878Z,10.70
2018-03-04T17:00:40.602Z,10.70
2018-03-04T17:03:15.884Z,10.60
2018-03-04T17:05:50.663Z,10.60
2018-03-04T17:08:26.122Z,10.50
2018-03-04T17:11:00.978Z,10.50
2018-03-04T17:13:30.168Z,10.50
2018-03-04T17:16:04.735Z,10.40
2018-03-04T17:18:40.497Z,10.40
2018-03-04T17:21:15.039Z,10.40
2018-03-04T17:23:49.653Z,10.40
2018-03-04T17:26:25.665Z,10.30
2018-03-04T17:28:57.469Z,10.30
2018-03-04T17:31:31.961Z,10.30
2018-03-04T17:34:06.470Z,10.30
2018-03-04T17:36:41.016Z,10.20
2018-03-04T17:39:15.777Z,10.10
2018-03-04T17:41:50.746Z,10.00
2018-03-04T17:44:25.719Z,9.90
2018-03-04T17:47:00.289Z,9.70
2018-03-04T17:49:34.839Z,9.60
2018-03-04T17:52:09.610Z,9.40
2018-03-04T17:54:46.108Z,9.30
2018-03-04T17:57:20.660Z,9.30
2018-03-04T17:59:55.401Z,9.30
2018-03-04T18:02:30.727Z,9.20
2018-03-04T18:05:06.433Z,9.20
2018-03-04T18:07:41.353Z,9.10
2018-03-04T18:10:16.741Z,9.10
2018-03-04T18:12:51.528Z,9.10
2018-03-04T18:15:20.673Z,9.20
2018-03-04T18:17:55.977Z,9.20
2018-03-04T18:20:31.535Z,9.20
2018-03-04T18:23:05.996Z,9.20
2018-03-04T18:25:42.625Z,9.30
2018-03-04T18:28:17.379Z,9.20
2018-03-04T18:30:51.915Z,9.30
2018-03-04T18:33:26.549Z,9.30
2018-03-04T18:35:57.109Z,9.30
2018-03-04T18:38:31.776Z,9.30
2018-03-04T18:41:06.521Z,9.30
2018-03-04T18:43:42.517Z,9.20
2018-03-04T18:46:17.111Z,9.20
2018-03-04T18:48:52.355Z,9.20
2018-03-04T18:51:21.680Z,9.10
2018-03-04T18:53:56.387Z,9.10
2018-03-04T18:56:31.095Z,9.00
2018-03-04T18:59:06.507Z,8.90
2018-03-04T19:01:41.383Z,8.90
2018-03-04T19:04:15.957Z,8.90
2018-03-04T19:06:46.268Z,8.80
2018-03-04T19:09:20.881Z,8.80
2018-03-04T19:11:55.829Z,8.70
2018-03-04T19:14:30.550Z,8.70
2018-03-04T19:17:05.901Z,8.60
2018-03-04T19:19:40.931Z,8.50
2018-03-04T19:22:15.422Z,8.50
2018-03-04T19:24:44.652Z,8.30
2018-03-04T19:27:20.090Z,8.20
2018-03-04T19:29:54.816Z,8.20
2018-03-04T19:32:24.011Z,8.10
2018-03-04T19:34:53.434Z,8.10
2018-03-04T19:37:23.673Z,8.10
2018-03-04T19:39:53.724Z,8.10
2018-03-04T19:42:24.005Z,8.00
2018-03-04T19:44:59.479Z,8.00
2018-03-04T19:47:34.984Z,8.10
2018-03-04T19:50:10.286Z,8.00
2018-03-04T19:52:45.202Z,8.00
2018-03-04T19:55:19.885Z,8.00
2018-03-04T19:57:54.406Z,8.00
2018-03-04T20:00:28.966Z,8.00
2018-03-04T20:03:03.564Z,8.00
2018-03-04T20:05:38.257Z,8.00
2018-03-04T20:08:12.741Z,8.10
2018-03-04T20:10:47.344Z,8.10
2018-03-04T20:13:21.977Z,8.10
2018-03-04T20:15:51.389Z,8.10
2018-03-04T20:18:26.807Z,8.20
2018-03-04T20:21:02.288Z,8.20
2018-03-04T20:23:38.184Z,8.20
2018-03-04T20:26:13.501Z,8.20
2018-03-04T20:28:48.193Z,8.20
2018-03-04T20:31:21.047Z,8.20
2018-03-04T20:33:55.813Z,8.20
2018-03-04T20:36:26.117Z,8.30
2018-03-04T20:38:55.624Z,8.30
2018-03-04T20:41:25.934Z,8.30
2018-03-04T20:43:55.893Z,8.30
2018-03-04T20:46:25.306Z,8.30
2018-03-04T20:48:54.725Z,8.30
2018-03-04T20:51:24.214Z,8.20
2018-03-04T20:53:53.789Z,8.20
2018-03-04T20:56:24.087Z,8.20
2018-03-04T20:58:54.749Z,8.20
2018-03-04T21:01:25.220Z,8.20
2018-03-04T21:03:54.627Z,8.10
2018-03-04T21:06:24.196Z,8.20
2018-03-04T21:08:54.564Z,8.20
2018-03-04T21:11:24.124Z,8.20
2018-03-04T21:13:54.215Z,8.20
2018-03-04T21:16:24.002Z,8.20
2018-03-04T21:18:53.638Z,8.20
2018-03-04T21:21:24.125Z,8.20
2018-03-04T21:23:58.830Z,8.20
2018-03-04T21:26:33.581Z,8.20
2018-03-04T21:29:08.235Z,8.30
2018-03-04T21:31:42.998Z,8.30
2018-03-04T21:34:17.834Z,8.30
2018-03-04T21:36:52.488Z,8.40
2018-03-04T21:39:27.178Z,8.40
2018-03-04T21:42:01.668Z,8.40
2018-03-04T21:44:36.303Z,8.50
2018-03-04T21:47:11.048Z,8.50
2018-03-04T21:49:45.975Z,8.60
2018-03-04T21:52:21.563Z,8.60
2018-03-04T21:54:56.120Z,8.60
2018-03-04T21:57:30.934Z,8.60
2018-03-04T22:00:05.762Z,8.60
2018-03-04T22:02:40.430Z,8.60
2018-03-04T22:05:15.235Z,8.60
2018-03-04T22:07:50.554Z,8.60
2018-03-04T22:10:25.253Z,8.60
2018-03-04T22:12:59.972Z,8.60
2018-03-04T22:15:36.187Z,8.60
2018-03-04T22:18:11.423Z,8.60
2018-03-04T22:20:45.956Z,8.60
2018-03-04T22:23:20.523Z,8.50
2018-03-04T22:25:55.211Z,8.50
2018-03-04T22:28:29.924Z,8.50
2018-03-04T22:31:04.565Z,8.40
2018-03-04T22:33:39.164Z,8.30
2018-03-04T22:36:13.858Z,8.30
2018-03-04T22:38:48.526Z,8.30
2018-03-04T22:41:23.841Z,8.50
2018-03-04T22:43:58.379Z,8.40
2018-03-04T22:46:32.958Z,8.50
2018-03-04T22:49:08.447Z,8.50
2018-03-04T22:51:43.048Z,8.50
2018-03-04T22:54:17.696Z,8.60
2018-03-04T22:56:52.405Z,8.50
2018-03-04T22:59:27.728Z,8.50
2018-03-04T23:02:02.243Z,8.50
2018-03-04T23:04:36.968Z,8.50
2018-03-04T23:07:11.804Z,8.50
2018-03-04T23:09:46.947Z,8.40
2018-03-04T23:12:21.428Z,8.40
2018-03-04T23:14:55.846Z,8.40
2018-03-04T23:17:30.377Z,8.40
2018-03-04T23:20:05.084Z,8.30
2018-03-04T23:22:39.669Z,8.30
2018-03-04T23:25:15.117Z,8.30
2018-03-04T23:27:49.741Z,8.30
2018-03-04T23:30:24.394Z,8.30
2018-03-04T23:32:58.982Z,8.20
2018-03-04T23:35:33.621Z,8.20
2018-03-04T23:38:08.244Z,8.10
2018-03-04T23:40:43.040Z,8.10
2018-03-04T23:43:17.615Z,8.10
2018-03-04T23:45:52.211Z,8.10
2018-03-04T23:48:26.860Z,8.00
2018-03-04T23:51:01.496Z,8.00
2018-03-04T23:53:36.136Z,7.90
2018-03-04T23:56:10.664Z,7.90
2018-03-04T23:58:45.427Z,8.00
